Time;durP1;ratioP1;P1;durP2;ratioP2;P2;SDS_P1;SDS_P2;PMS_P1;PMS_P2;Temp;Humidity;BMP_temperature;BMP_pressure;BME280_temperature;BME280_humidity;BME280_pressure;Samples;Min_cycle;Max_cycle;Signal;HPM_P1;HPM_P2
2022/08/05 00:06:51;;;;;;;5.5;7.5;;;;;;;16.6;100;98570;;;;
2022/08/05 00:16:51;;;;;;;5.5;7.5;;;;;;;16.6;100;98560;;;;
2022/08/05 00:27:51;;;;;;;;;;;;;;;;;;;;;
2022/08/05 00:37:51;;;;;;;5.6;9.4;;;;;;;16.3;100;98550;;;;
2022/08/05 00:47:51;;;;;;;5.6;9.4;;;;;;;16.3;100;98550;;;;
2022/08/05 00:58:51;;;;;;;5.2;7.8;;;;;;;16.2;100;98540;;;;
2022/08/05 01:08:51;;;;;;;5.2;7.8;;;;;;;16.2;100;98530;;;;
2022/08/05 01:19:51;;;;;;;5.2;7.8;;;;;;;16.1;100;98530;;;;
2022/08/05 01:30:51;;;;;;;6.4;10;;;;;;;16;100;98520;;;;
2022/08/05 01:40:51;;;;;;;6.4;10;;;;;;;15.9;100;98520;;;;
2022/08/05 01:51:51;;;;;;;6.4;10;;;;;;;15.7;100;98510;;;;
2022/08/05 02:02:51;;;;;;;6.9;9.5;;;;;;;15.6;100;98500;;;;
2022/08/05 02:12:52;;;;;;;6.9;9.5;;;;;;;15.5;100;98500;;;;
2022/08/05 02:23:51;;;;;;;6.9;9.5;;;;;;;15.4;100;98500;;;;
2022/08/05 02:33:51;;;;;;;6.4;10.8;;;;;;;15.3;100;98500;;;;
2022/08/05 02:44:51;;;;;;;6.4;10.8;;;;;;;15.2;100;98500;;;;
2022/08/05 02:55:51;;;;;;;6.4;10.8;;;;;;;15.1;100;98490;;;;
2022/08/05 03:05:51;;;;;;;6.3;9.5;;;;;;;14.9;100;98490;;;;
2022/08/05 03:15:51;;;;;;;6.3;9.5;;;;;;;14.9;100;98490;;;;
2022/08/05 03:26:51;;;;;;;7.6;10.9;;;;;;;14.6;100;98480;;;;
2022/08/05 03:36:51;;;;;;;7.6;10.9;;;;;;;14.6;100;98480;;;;
2022/08/05 03:46:51;;;;;;;7.6;10.9;;;;;;;14.8;100;98480;;;;
2022/08/05 03:57:52;;;;;;;7.4;11.7;;;;;;;14.8;100;98490;;;;
2022/08/05 04:07:52;;;;;;;7.4;11.7;;;;;;;15;100;98480;;;;
2022/08/05 04:18:51;;;;;;;7.4;11.7;;;;;;;15.3;100;98490;;;;
2022/08/05 04:28:51;;;;;;;8.7;11.8;;;;;;;15.5;100;98480;;;;
2022/08/05 04:39:51;;;;;;;8.7;11.8;;;;;;;15.9;100;98490;;;;
2022/08/05 04:50:51;;;;;;;8.7;11.8;;;;;;;16.5;100;98490;;;;
2022/08/05 05:01:51;;;;;;;9.2;12.4;;;;;;;17;100;98480;;;;
2022/08/05 05:11:51;;;;;;;9.2;12.4;;;;;;;17.4;100;98480;;;;
2022/08/05 05:22:51;;;;;;;9.2;12.4;;;;;;;17.9;100;98480;;;;
2022/08/05 05:32:52;;;;;;;8.5;11;;;;;;;18.4;100;98490;;;;
2022/08/05 05:43:51;;;;;;;8.5;11;;;;;;;18.8;100;98490;;;;
2022/08/05 05:53:52;;;;;;;8.5;11;;;;;;;19.3;100;98500;;;;
2022/08/05 06:03:51;;;;;;;7.6;11.3;;;;;;;19.6;100;98510;;;;
2022/08/05 06:14:51;;;;;;;7.6;11.3;;;;;;;20.2;100;98500;;;;
2022/08/05 06:24:51;;;;;;;7.6;11.3;;;;;;;20.8;100;98500;;;;
2022/08/05 06:34:52;;;;;;;6.4;10.6;;;;;;;21.1;100;98500;;;;
2022/08/05 06:45:52;;;;;;;6.4;10.6;;;;;;;21.6;100;98510;;;;
2022/08/05 06:55:52;;;;;;;6.4;10.6;;;;;;;21.9;100;98500;;;;
2022/08/05 07:06:52;;;;;;;6.4;9.5;;;;;;;22.7;100;98500;;;;
2022/08/05 07:16:58;;;;;;;6.4;9.5;;;;;;;23.2;100;98500;;;;
2022/08/05 07:27:52;;;;;;;5.7;11.8;;;;;;;23.3;100;98500;;;;
2022/08/05 07:37:51;;;;;;;5.7;11.8;;;;;;;24;100;98510;;;;
2022/08/05 07:48:52;;;;;;;5.7;11.8;;;;;;;24.4;100;98500;;;;
2022/08/05 07:58:52;;;;;;;4.8;9.4;;;;;;;24.9;100;98500;;;;
2022/08/05 08:08:51;;;;;;;4.8;9.4;;;;;;;25.1;100;98500;;;;
2022/08/05 08:19:51;;;;;;;4.8;9.4;;;;;;;25.6;100;98490;;;;
2022/08/05 08:30:52;;;;;;;4.9;9.1;;;;;;;26.1;100;98500;;;;
2022/08/05 08:40:51;;;;;;;4.9;9.1;;;;;;;26.5;100;98500;;;;
2022/08/05 08:50:51;;;;;;;4.9;9.1;;;;;;;26.6;100;98500;;;;
2022/08/05 09:00:52;;;;;;;5;9.1;;;;;;;27.4;100;98500;;;;
2022/08/05 09:11:52;;;;;;;5;9.1;;;;;;;27.7;100;98500;;;;
2022/08/05 09:22:52;;;;;;;5;9.1;;;;;;;27.8;100;98500;;;;
2022/08/05 09:32:52;;;;;;;4.6;8;;;;;;;28.5;100;98490;;;;
2022/08/05 09:42:52;;;;;;;4.6;8;;;;;;;28.5;99.9;98490;;;;
2022/08/05 09:53:52;;;;;;;4.6;8;;;;;;;28.7;96.5;98470;;;;
2022/08/05 10:03:52;;;;;;;4.6;9.2;;;;;;;28.9;88.8;98470;;;;
2022/08/05 10:14:51;;;;;;;4.6;9.2;;;;;;;29.5;87.8;98470;;;;
2022/08/05 10:24:52;;;;;;;4.6;9.2;;;;;;;29.7;79;98470;;;;
2022/08/05 10:35:52;;;;;;;3.7;7.7;;;;;;;29.8;72.3;98460;;;;
2022/08/05 10:45:52;;;;;;;3.7;7.7;;;;;;;29.8;75.3;98450;;;;
2022/08/05 10:56:52;;;;;;;3.5;6.4;;;;;;;30.1;66.8;98450;;;;
2022/08/05 11:07:52;;;;;;;3.5;6.4;;;;;;;30;59.5;98440;;;;
2022/08/05 11:18:52;;;;;;;3.5;6.4;;;;;;;30.5;65.8;98430;;;;
2022/08/05 11:28:52;;;;;;;2.9;5.4;;;;;;;30.6;63.4;98430;;;;
2022/08/05 11:38:53;;;;;;;2.9;5.4;;;;;;;30.8;70.6;98420;;;;
2022/08/05 11:49:53;;;;;;;2.9;5.4;;;;;;;31.1;71.5;98420;;;;
2022/08/05 11:59:52;;;;;;;3.2;6.1;;;;;;;31.4;66.3;98420;;;;
2022/08/05 12:10:52;;;;;;;3.2;6.1;;;;;;;31.4;65.8;98410;;;;
2022/08/05 12:21:52;;;;;;;3.2;6.1;;;;;;;31.3;64.7;98400;;;;
2022/08/05 12:32:54;;;;;;;3.4;5.8;;;;;;;31.7;60.6;98400;;;;
2022/08/05 12:43:52;;;;;;;3.4;5.8;;;;;;;31.8;59.6;98400;;;;
2022/08/05 12:53:52;;;;;;;3.4;5.8;;;;;;;31.6;64.3;98390;;;;
2022/08/05 13:03:52;;;;;;;3.3;5.2;;;;;;;31.9;62.1;98390;;;;
2022/08/05 13:14:52;;;;;;;3.3;5.2;;;;;;;32.2;60.9;98390;;;;
2022/08/05 13:25:52;;;;;;;3.3;5.2;;;;;;;32;61.3;98370;;;;
2022/08/05 13:36:52;;;;;;;3.5;5.6;;;;;;;32.4;61.1;98370;;;;
2022/08/05 13:47:52;;;;;;;3.5;5.6;;;;;;;32.6;58.5;98360;;;;
2022/08/05 13:58:52;;;;;;;3.2;5.7;;;;;;;32.8;64.6;98360;;;;
2022/08/05 14:09:52;;;;;;;3.2;5.7;;;;;;;32.6;63.7;98350;;;;
2022/08/05 14:20:52;;;;;;;3.2;5.7;;;;;;;33.3;59.6;98340;;;;
2022/08/05 14:31:52;;;;;;;4;8.2;;;;;;;33.8;57.7;98330;;;;
2022/08/05 14:41:52;;;;;;;4;8.2;;;;;;;33.3;58.7;98320;;;;
2022/08/05 14:52:52;;;;;;;4;8.2;;;;;;;34.3;60.4;98330;;;;
2022/08/05 15:03:52;;;;;;;3.9;6.9;;;;;;;34.8;58.8;98320;;;;
2022/08/05 15:14:52;;;;;;;3.9;6.9;;;;;;;34.4;55.5;98310;;;;
2022/08/05 15:25:52;;;;;;;3.9;6.9;;;;;;;38.5;45.8;98310;;;;
2022/08/05 15:35:52;;;;;;;3.6;7.2;;;;;;;40.4;41.6;98310;;;;
2022/08/05 15:45:52;;;;;;;3.6;7.2;;;;;;;40.7;40.5;98310;;;;
2022/08/05 15:55:52;;;;;;;3.6;7.2;;;;;;;42;37.2;98320;;;;
2022/08/05 16:06:52;;;;;;;3.1;6.6;;;;;;;42.2;38.2;98310;;;;
2022/08/05 16:16:52;;;;;;;3.1;6.6;;;;;;;41;39.6;98300;;;;
2022/08/05 16:27:52;;;;;;;3.1;6.6;;;;;;;38.3;41;98290;;;;
2022/08/05 16:38:52;;;;;;;3.4;4.7;;;;;;;35.8;47.1;98280;;;;
2022/08/05 16:49:52;;;;;;;3.4;4.7;;;;;;;34;57.1;98270;;;;
2022/08/05 17:00:52;;;;;;;3.9;8.2;;;;;;;33.1;62;98270;;;;
2022/08/05 17:10:52;;;;;;;3.9;8.2;;;;;;;32.2;68.3;98270;;;;
2022/08/05 17:21:52;;;;;;;3.9;8.2;;;;;;;33;68.8;98280;;;;
2022/08/05 17:32:52;;;;;;;4;6.3;;;;;;;32.2;70.5;98280;;;;
2022/08/05 17:42:52;;;;;;;4;6.3;;;;;;;30.9;75.2;98270;;;;
2022/08/05 17:53:52;;;;;;;4;6.3;;;;;;;29.6;78.9;98260;;;;
2022/08/05 18:03:52;;;;;;;16.5;23.7;;;;;;;28.5;85.2;98260;;;;
2022/08/05 18:13:52;;;;;;;16.5;23.7;;;;;;;27.6;92;98270;;;;
2022/08/05 18:23:52;;;;;;;16.5;23.7;;;;;;;26.8;96.2;98270;;;;
2022/08/05 18:33:52;;;;;;;23.8;29.6;;;;;;;26.4;95.1;98270;;;;
2022/08/05 18:44:52;;;;;;;23.8;29.6;;;;;;;26;94.7;98270;;;;
2022/08/05 18:54:52;;;;;;;23.8;29.6;;;;;;;25.7;97.1;98280;;;;
2022/08/05 19:05:52;;;;;;;14.3;17.9;;;;;;;25.2;98.3;98280;;;;
2022/08/05 19:15:52;;;;;;;14.3;17.9;;;;;;;25;100;98290;;;;
2022/08/05 19:26:52;;;;;;;14.3;17.9;;;;;;;24.9;100;98290;;;;
2022/08/05 19:36:52;;;;;;;8.4;11;;;;;;;24.8;100;98290;;;;
2022/08/05 19:47:52;;;;;;;8.4;11;;;;;;;24.6;100;98290;;;;
2022/08/05 19:58:52;;;;;;;6;8.8;;;;;;;24.4;100;98300;;;;
2022/08/05 20:08:52;;;;;;;6;8.8;;;;;;;24.2;100;98290;;;;
2022/08/05 20:19:52;;;;;;;6;8.8;;;;;;;23.9;100;98290;;;;
2022/08/05 20:29:52;;;;;;;9.3;13.1;;;;;;;23.6;100;98300;;;;
2022/08/05 20:40:52;;;;;;;9.3;13.1;;;;;;;23.2;100;98300;;;;
2022/08/05 20:50:52;;;;;;;9.3;13.1;;;;;;;22.9;100;98300;;;;
2022/08/05 21:00:52;;;;;;;11.3;15.9;;;;;;;22.5;100;98300;;;;
2022/08/05 21:11:52;;;;;;;11.3;15.9;;;;;;;22.3;100;98290;;;;
2022/08/05 21:21:52;;;;;;;11.3;15.9;;;;;;;21.9;100;98300;;;;
2022/08/05 21:32:52;;;;;;;9.9;13.5;;;;;;;21.7;100;98310;;;;
2022/08/05 21:42:52;;;;;;;9.9;13.5;;;;;;;21.3;100;98310;;;;
2022/08/05 21:53:52;;;;;;;9.9;13.5;;;;;;;21.2;100;98310;;;;
2022/08/05 22:03:52;;;;;;;13.1;19.2;;;;;;;21;100;98320;;;;
2022/08/05 22:14:52;;;;;;;13.1;19.2;;;;;;;20.9;100;98320;;;;
2022/08/05 22:35:52;;;;;;;12.2;18.9;;;;;;;20.5;100;98310;;;;
2022/08/05 22:45:52;;;;;;;12.2;18.9;;;;;;;20.4;100;98310;;;;
2022/08/05 22:55:53;;;;;;;12.2;18.9;;;;;;;20.3;100;98310;;;;
2022/08/05 23:06:52;;;;;;;14.5;18.2;;;;;;;20.1;100;98310;;;;
2022/08/05 23:17:52;;;;;;;14.5;18.2;;;;;;;20;100;98310;;;;
2022/08/05 23:28:52;;;;;;;12;16.6;;;;;;;20;100;98310;;;;
2022/08/05 23:38:52;;;;;;;12;16.6;;;;;;;19.8;100;98300;;;;
2022/08/05 23:49:52;;;;;;;12;16.6;;;;;;;19.7;100;98290;;;;
